This is the latest recevied weather packets stored in our database for station/object WX5RP. If no packets are shown the sender has not sent any weather packets the latest 10 day(s).
| Time | Temp. | Humidity | Pressure | Rain* | Wind** | Luminosity | Snow |
|---|---|---|---|---|---|---|---|
| 1778236516 | 2.22° C | 69% | 1018.6 hPa | 0 mm | - | 0 W/m² | - |
| 1778235916 | 3.89° C | 64% | 1017.9 hPa | 0 mm | - | 0 W/m² | - |
| 1778235316 | 6.11° C | 59% | 1018.8 hPa | 0 mm | - | 0 W/m² | - |
| 1778234718 | 6.11° C | 58% | 1018.8 hPa | 0 mm | - | 0 W/m² | - |
| 1778234116 | 3.89° C | 67% | 1019.1 hPa | 0 mm | - | 0 W/m² | - |
| 1778233517 | 3.89° C | 69% | 1019.2 hPa | 0 mm | - | 0 W/m² | - |
| 1778232916 | 3.33° C | 69% | 1019.1 hPa | 0 mm | - | 0 W/m² | - |
| 1778232316 | 3.89° C | 66% | 1018.4 hPa | 0 mm | - | 0 W/m² | - |
| 1778231716 | 7.22° C | 55% | 1019.6 hPa | 0 mm | - | 0 W/m² | - |
| 1778231117 | 8.33° C | 51% | 1018.9 hPa | 0 mm | - | 0 W/m² | - |
| 1778230516 | 7.78° C | 51% | 1019.3 hPa | 0 mm | - | 0 W/m² | - |
| 1778229916 | 6.67° C | 57% | 1019.3 hPa | 0 mm | - | 0 W/m² | - |
| 1778229316 | 5.56° C | 63% | 1019.1 hPa | 0 mm | - | 0 W/m² | - |
| 1778228716 | 6.11° C | 64% | 1019.1 hPa | 0 mm | - | 0 W/m² | - |
| 1778228117 | 6.67° C | 63% | 1018.8 hPa | 0 mm | - | 0 W/m² | - |
| 1778227516 | 6.67° C | 62% | 1019.3 hPa | 0 mm | - | 0 W/m² | - |
| 1778226916 | 7.22° C | 62% | 1019 hPa | 0 mm | - | 0 W/m² | - |
| 1778226316 | 8.33° C | 56% | 1019.2 hPa | 0 mm | - | 0 W/m² | - |
| 1778225716 | 7.78° C | 58% | 1019.1 hPa | 0 mm | - | 0 W/m² | - |
| 1778225116 | 7.22° C | 64% | 1019.1 hPa | 0 mm | - | 0 W/m² | - |
| 1778224516 | 7.22° C | 62% | 1018.8 hPa | 0 mm | - | 0 W/m² | - |
| 1778223916 | 7.22° C | 66% | 1019.5 hPa | 0 mm | - | 0 W/m² | - |
| 1778223316 | 7.22° C | 64% | 1019 hPa | 0 mm | - | 0 W/m² | - |
| 1778222718 | 8.33° C | 60% | 1019.3 hPa | 0 mm | - | 0 W/m² | - |
| 1778222117 | 8.33° C | 60% | 1019.3 hPa | 0 mm | - | 0 W/m² | - |
* Rain latest hour (hover to see other rain measurements)
** Current wind speed in m/s (hover to see current wind gust speed)